sensor_id;sensor_type;location;lat;lon;timestamp;P1;durP1;ratioP1;P2;durP2;ratioP2
22565;SDS011;11449;51.330;19.378;2023-11-21T00:03:37;107.30;;;27.30;;
22565;SDS011;11449;51.330;19.378;2023-11-21T00:08:47;120.90;;;31.00;;
22565;SDS011;11449;51.330;19.378;2023-11-21T00:13:55;145.60;;;34.40;;
22565;SDS011;11449;51.330;19.378;2023-11-21T00:19:00;154.10;;;34.70;;
22565;SDS011;11449;51.330;19.378;2023-11-21T00:24:04;157.10;;;34.80;;
22565;SDS011;11449;51.330;19.378;2023-11-21T00:29:07;162.40;;;36.00;;
22565;SDS011;11449;51.330;19.378;2023-11-21T00:34:13;121.50;;;30.60;;
22565;SDS011;11449;51.330;19.378;2023-11-21T00:39:22;116.80;;;30.60;;
22565;SDS011;11449;51.330;19.378;2023-11-21T00:44:27;125.80;;;35.10;;
22565;SDS011;11449;51.330;19.378;2023-11-21T00:49:31;134.00;;;38.20;;
22565;SDS011;11449;51.330;19.378;2023-11-21T00:54:36;112.40;;;32.60;;
22565;SDS011;11449;51.330;19.378;2023-11-21T00:59:44;120.90;;;31.40;;
22565;SDS011;11449;51.330;19.378;2023-11-21T01:04:54;159.40;;;39.90;;
22565;SDS011;11449;51.330;19.378;2023-11-21T01:09:58;168.40;;;39.70;;
22565;SDS011;11449;51.330;19.378;2023-11-21T01:15:08;135.10;;;34.70;;
22565;SDS011;11449;51.330;19.378;2023-11-21T01:20:16;132.30;;;35.30;;
22565;SDS011;11449;51.330;19.378;2023-11-21T01:25:23;119.80;;;31.50;;
22565;SDS011;11449;51.330;19.378;2023-11-21T01:30:27;115.90;;;32.80;;
22565;SDS011;11449;51.330;19.378;2023-11-21T01:35:35;113.00;;;32.50;;
22565;SDS011;11449;51.330;19.378;2023-11-21T01:40:43;107.60;;;30.80;;
22565;SDS011;11449;51.330;19.378;2023-11-21T01:45:51;134.60;;;33.30;;
22565;SDS011;11449;51.330;19.378;2023-11-21T01:50:58;171.00;;;38.00;;
22565;SDS011;11449;51.330;19.378;2023-11-21T01:56:06;159.60;;;31.80;;
22565;SDS011;11449;51.330;19.378;2023-11-21T02:01:15;141.10;;;32.70;;
22565;SDS011;11449;51.330;19.378;2023-11-21T02:06:24;132.60;;;29.90;;
22565;SDS011;11449;51.330;19.378;2023-11-21T02:11:32;145.90;;;32.60;;
22565;SDS011;11449;51.330;19.378;2023-11-21T02:16:42;141.50;;;31.90;;
22565;SDS011;11449;51.330;19.378;2023-11-21T02:21:53;144.00;;;31.50;;
22565;SDS011;11449;51.330;19.378;2023-11-21T02:26:57;152.80;;;31.80;;
22565;SDS011;11449;51.330;19.378;2023-11-21T02:32:05;153.20;;;30.90;;
22565;SDS011;11449;51.330;19.378;2023-11-21T02:37:09;167.80;;;36.90;;
22565;SDS011;11449;51.330;19.378;2023-11-21T02:42:18;117.40;;;27.70;;
22565;SDS011;11449;51.330;19.378;2023-11-21T02:47:27;154.90;;;32.30;;
22565;SDS011;11449;51.330;19.378;2023-11-21T02:52:33;173.30;;;33.00;;
22565;SDS011;11449;51.330;19.378;2023-11-21T02:57:41;210.20;;;39.20;;
22565;SDS011;11449;51.330;19.378;2023-11-21T03:02:49;164.00;;;34.90;;
22565;SDS011;11449;51.330;19.378;2023-11-21T03:07:57;210.50;;;34.80;;
22565;SDS011;11449;51.330;19.378;2023-11-21T03:13:01;201.80;;;32.20;;
22565;SDS011;11449;51.330;19.378;2023-11-21T03:18:10;268.70;;;34.60;;
22565;SDS011;11449;51.330;19.378;2023-11-21T03:23:19;276.50;;;31.60;;
22565;SDS011;11449;51.330;19.378;2023-11-21T03:28:28;206.30;;;33.30;;
22565;SDS011;11449;51.330;19.378;2023-11-21T03:33:34;227.40;;;35.20;;
22565;SDS011;11449;51.330;19.378;2023-11-21T03:38:38;197.20;;;28.00;;
22565;SDS011;11449;51.330;19.378;2023-11-21T03:43:47;223.70;;;29.10;;
22565;SDS011;11449;51.330;19.378;2023-11-21T03:48:55;214.50;;;32.90;;
22565;SDS011;11449;51.330;19.378;2023-11-21T03:54:03;189.50;;;33.70;;
22565;SDS011;11449;51.330;19.378;2023-11-21T03:59:16;171.40;;;31.20;;
22565;SDS011;11449;51.330;19.378;2023-11-21T04:04:25;180.70;;;29.30;;
22565;SDS011;11449;51.330;19.378;2023-11-21T04:09:30;166.80;;;30.00;;
22565;SDS011;11449;51.330;19.378;2023-11-21T04:14:38;198.50;;;29.90;;
22565;SDS011;11449;51.330;19.378;2023-11-21T04:19:42;165.30;;;35.40;;
22565;SDS011;11449;51.330;19.378;2023-11-21T04:24:44;120.30;;;27.50;;
22565;SDS011;11449;51.330;19.378;2023-11-21T04:29:53;139.10;;;28.40;;
22565;SDS011;11449;51.330;19.378;2023-11-21T04:34:56;152.60;;;27.50;;
22565;SDS011;11449;51.330;19.378;2023-11-21T04:40:05;148.70;;;26.10;;
22565;SDS011;11449;51.330;19.378;2023-11-21T04:45:14;141.90;;;23.80;;
22565;SDS011;11449;51.330;19.378;2023-11-21T04:50:19;116.20;;;25.20;;
22565;SDS011;11449;51.330;19.378;2023-11-21T04:55:28;113.00;;;22.50;;
22565;SDS011;11449;51.330;19.378;2023-11-21T05:00:36;125.60;;;20.60;;
22565;SDS011;11449;51.330;19.378;2023-11-21T05:05:45;103.20;;;26.80;;
22565;SDS011;11449;51.330;19.378;2023-11-21T05:10:52;140.20;;;35.00;;
22565;SDS011;11449;51.330;19.378;2023-11-21T05:16:00;173.80;;;31.60;;
22565;SDS011;11449;51.330;19.378;2023-11-21T05:21:14;115.30;;;27.60;;
22565;SDS011;11449;51.330;19.378;2023-11-21T05:26:23;119.30;;;27.50;;
22565;SDS011;11449;51.330;19.378;2023-11-21T05:31:27;146.50;;;27.30;;
22565;SDS011;11449;51.330;19.378;2023-11-21T05:36:32;126.40;;;28.30;;
22565;SDS011;11449;51.330;19.378;2023-11-21T05:41:41;130.60;;;30.10;;
22565;SDS011;11449;51.330;19.378;2023-11-21T05:46:49;142.20;;;31.20;;
22565;SDS011;11449;51.330;19.378;2023-11-21T05:51:54;157.60;;;32.10;;
22565;SDS011;11449;51.330;19.378;2023-11-21T05:57:02;162.60;;;31.80;;
22565;SDS011;11449;51.330;19.378;2023-11-21T06:02:06;169.10;;;29.80;;
22565;SDS011;11449;51.330;19.378;2023-11-21T06:07:12;130.70;;;26.70;;
22565;SDS011;11449;51.330;19.378;2023-11-21T06:12:21;100.00;;;18.40;;
22565;SDS011;11449;51.330;19.378;2023-11-21T06:17:31;83.50;;;18.10;;
22565;SDS011;11449;51.330;19.378;2023-11-21T06:22:44;94.60;;;18.40;;
22565;SDS011;11449;51.330;19.378;2023-11-21T06:27:52;118.50;;;20.60;;
22565;SDS011;11449;51.330;19.378;2023-11-21T06:33:01;123.70;;;20.40;;
22565;SDS011;11449;51.330;19.378;2023-11-21T06:38:11;130.50;;;22.50;;
22565;SDS011;11449;51.330;19.378;2023-11-21T06:43:16;79.50;;;18.10;;
22565;SDS011;11449;51.330;19.378;2023-11-21T06:48:25;97.80;;;19.20;;
22565;SDS011;11449;51.330;19.378;2023-11-21T06:53:32;84.70;;;18.90;;
22565;SDS011;11449;51.330;19.378;2023-11-21T06:58:35;114.70;;;23.60;;
22565;SDS011;11449;51.330;19.378;2023-11-21T07:03:44;122.60;;;25.90;;
22565;SDS011;11449;51.330;19.378;2023-11-21T07:08:53;111.00;;;24.40;;
22565;SDS011;11449;51.330;19.378;2023-11-21T07:14:01;159.80;;;32.10;;
22565;SDS011;11449;51.330;19.378;2023-11-21T07:19:11;114.40;;;28.90;;
22565;SDS011;11449;51.330;19.378;2023-11-21T07:24:20;125.30;;;34.70;;
22565;SDS011;11449;51.330;19.378;2023-11-21T07:29:28;124.60;;;38.40;;
22565;SDS011;11449;51.330;19.378;2023-11-21T07:34:38;130.90;;;58.70;;
22565;SDS011;11449;51.330;19.378;2023-11-21T07:39:41;119.70;;;51.50;;
22565;SDS011;11449;51.330;19.378;2023-11-21T07:44:49;141.80;;;48.60;;
22565;SDS011;11449;51.330;19.378;2023-11-21T07:49:57;183.80;;;52.90;;
22565;SDS011;11449;51.330;19.378;2023-11-21T07:55:05;160.50;;;43.70;;
22565;SDS011;11449;51.330;19.378;2023-11-21T08:00:15;124.80;;;37.70;;
22565;SDS011;11449;51.330;19.378;2023-11-21T08:05:22;113.70;;;33.90;;
22565;SDS011;11449;51.330;19.378;2023-11-21T08:10:30;123.60;;;39.30;;
22565;SDS011;11449;51.330;19.378;2023-11-21T08:15:38;119.70;;;31.70;;
22565;SDS011;11449;51.330;19.378;2023-11-21T08:20:45;119.10;;;29.20;;
22565;SDS011;11449;51.330;19.378;2023-11-21T08:25:56;219.50;;;106.30;;
22565;SDS011;11449;51.330;19.378;2023-11-21T08:31:03;211.40;;;100.60;;
22565;SDS011;11449;51.330;19.378;2023-11-21T08:36:12;205.10;;;134.10;;
22565;SDS011;11449;51.330;19.378;2023-11-21T08:41:20;208.70;;;166.10;;
22565;SDS011;11449;51.330;19.378;2023-11-21T08:46:30;193.40;;;143.20;;
22565;SDS011;11449;51.330;19.378;2023-11-21T08:51:40;262.00;;;221.20;;
22565;SDS011;11449;51.330;19.378;2023-11-21T08:56:49;219.40;;;164.00;;
22565;SDS011;11449;51.330;19.378;2023-11-21T09:01:53;120.70;;;27.10;;
22565;SDS011;11449;51.330;19.378;2023-11-21T09:07:01;175.60;;;33.50;;
22565;SDS011;11449;51.330;19.378;2023-11-21T09:12:11;131.80;;;28.30;;
22565;SDS011;11449;51.330;19.378;2023-11-21T09:17:20;100.40;;;27.20;;
22565;SDS011;11449;51.330;19.378;2023-11-21T09:22:23;125.60;;;38.10;;
22565;SDS011;11449;51.330;19.378;2023-11-21T09:27:33;144.10;;;51.70;;
22565;SDS011;11449;51.330;19.378;2023-11-21T09:32:41;153.00;;;52.20;;
22565;SDS011;11449;51.330;19.378;2023-11-21T09:37:49;125.70;;;47.10;;
22565;SDS011;11449;51.330;19.378;2023-11-21T09:42:57;145.20;;;41.20;;
22565;SDS011;11449;51.330;19.378;2023-11-21T09:48:06;341.40;;;112.80;;
22565;SDS011;11449;51.330;19.378;2023-11-21T09:53:19;130.40;;;38.00;;
22565;SDS011;11449;51.330;19.378;2023-11-21T09:58:24;189.10;;;44.80;;
22565;SDS011;11449;51.330;19.378;2023-11-21T10:03:35;117.80;;;36.40;;
22565;SDS011;11449;51.330;19.378;2023-11-21T10:13:47;177.80;;;101.10;;
22565;SDS011;11449;51.330;19.378;2023-11-21T10:18:54;164.20;;;51.60;;
22565;SDS011;11449;51.330;19.378;2023-11-21T10:24:03;197.90;;;84.00;;
22565;SDS011;11449;51.330;19.378;2023-11-21T10:29:12;106.30;;;39.00;;
22565;SDS011;11449;51.330;19.378;2023-11-21T10:34:21;106.00;;;29.20;;
22565;SDS011;11449;51.330;19.378;2023-11-21T10:44:35;84.20;;;22.20;;
22565;SDS011;11449;51.330;19.378;2023-11-21T10:49:42;84.60;;;19.30;;
22565;SDS011;11449;51.330;19.378;2023-11-21T10:54:51;91.40;;;21.40;;
22565;SDS011;11449;51.330;19.378;2023-11-21T10:59:59;122.60;;;20.80;;
22565;SDS011;11449;51.330;19.378;2023-11-21T11:05:07;125.00;;;23.00;;
22565;SDS011;11449;51.330;19.378;2023-11-21T11:10:16;89.10;;;18.60;;
22565;SDS011;11449;51.330;19.378;2023-11-21T11:15:21;92.50;;;18.80;;
22565;SDS011;11449;51.330;19.378;2023-11-21T11:20:33;84.70;;;16.90;;
22565;SDS011;11449;51.330;19.378;2023-11-21T11:41:13;67.30;;;13.30;;
22565;SDS011;11449;51.330;19.378;2023-11-21T11:46:41;72.10;;;13.80;;
22565;SDS011;11449;51.330;19.378;2023-11-21T11:52:26;65.00;;;14.20;;
22565;SDS011;11449;51.330;19.378;2023-11-21T11:57:23;99.10;;;17.00;;
22565;SDS011;11449;51.330;19.378;2023-11-21T12:02:32;68.90;;;14.60;;
22565;SDS011;11449;51.330;19.378;2023-11-21T12:07:42;58.70;;;13.20;;
22565;SDS011;11449;51.330;19.378;2023-11-21T12:17:58;31.00;;;13.70;;
22565;SDS011;11449;51.330;19.378;2023-11-21T12:23:07;28.50;;;12.40;;
22565;SDS011;11449;51.330;19.378;2023-11-21T12:28:16;35.20;;;14.10;;
22565;SDS011;11449;51.330;19.378;2023-11-21T12:33:24;24.20;;;12.40;;
22565;SDS011;11449;51.330;19.378;2023-11-21T12:38:33;30.30;;;16.60;;
22565;SDS011;11449;51.330;19.378;2023-11-21T12:43:43;19.00;;;9.70;;
22565;SDS011;11449;51.330;19.378;2023-11-21T12:48:52;24.90;;;10.90;;
22565;SDS011;11449;51.330;19.378;2023-11-21T12:54:00;32.40;;;12.70;;
22565;SDS011;11449;51.330;19.378;2023-11-21T12:59:09;72.30;;;12.90;;
22565;SDS011;11449;51.330;19.378;2023-11-21T13:04:20;53.50;;;11.10;;
22565;SDS011;11449;51.330;19.378;2023-11-21T13:09:36;67.70;;;14.70;;
22565;SDS011;11449;51.330;19.378;2023-11-21T13:14:45;92.10;;;24.70;;
22565;SDS011;11449;51.330;19.378;2023-11-21T13:19:49;134.00;;;66.90;;
22565;SDS011;11449;51.330;19.378;2023-11-21T13:24:54;80.60;;;26.90;;
22565;SDS011;11449;51.330;19.378;2023-11-21T13:30:02;134.40;;;37.60;;
22565;SDS011;11449;51.330;19.378;2023-11-21T13:35:09;141.10;;;47.20;;
22565;SDS011;11449;51.330;19.378;2023-11-21T13:40:25;94.80;;;64.00;;
22565;SDS011;11449;51.330;19.378;2023-11-21T13:45:30;577.30;;;530.10;;
22565;SDS011;11449;51.330;19.378;2023-11-21T13:50:39;24.00;;;13.10;;
22565;SDS011;11449;51.330;19.378;2023-11-21T13:55:53;25.20;;;12.30;;
22565;SDS011;11449;51.330;19.378;2023-11-21T14:01:02;28.40;;;13.60;;
22565;SDS011;11449;51.330;19.378;2023-11-21T14:06:13;22.80;;;13.20;;
22565;SDS011;11449;51.330;19.378;2023-11-21T14:11:31;16.10;;;10.60;;
22565;SDS011;11449;51.330;19.378;2023-11-21T14:16:35;19.10;;;10.80;;
22565;SDS011;11449;51.330;19.378;2023-11-21T14:21:38;21.40;;;13.20;;
22565;SDS011;11449;51.330;19.378;2023-11-21T14:26:48;18.80;;;11.70;;
22565;SDS011;11449;51.330;19.378;2023-11-21T14:31:53;24.30;;;14.00;;
22565;SDS011;11449;51.330;19.378;2023-11-21T14:37:00;33.90;;;17.30;;
22565;SDS011;11449;51.330;19.378;2023-11-21T14:42:05;40.70;;;19.50;;
22565;SDS011;11449;51.330;19.378;2023-11-21T14:47:15;29.70;;;15.60;;
22565;SDS011;11449;51.330;19.378;2023-11-21T14:52:23;34.80;;;18.20;;
22565;SDS011;11449;51.330;19.378;2023-11-21T14:57:45;26.70;;;14.40;;
22565;SDS011;11449;51.330;19.378;2023-11-21T15:02:57;40.70;;;18.90;;
22565;SDS011;11449;51.330;19.378;2023-11-21T15:08:05;48.80;;;19.20;;
22565;SDS011;11449;51.330;19.378;2023-11-21T15:13:34;994.40;;;919.00;;
22565;SDS011;11449;51.330;19.378;2023-11-21T15:18:42;996.40;;;919.40;;
22565;SDS011;11449;51.330;19.378;2023-11-21T15:23:50;1004.40;;;927.00;;
22565;SDS011;11449;51.330;19.378;2023-11-21T15:28:58;197.70;;;115.30;;
22565;SDS011;11449;51.330;19.378;2023-11-21T15:34:05;44.90;;;17.60;;
22565;SDS011;11449;51.330;19.378;2023-11-21T15:39:13;34.90;;;16.70;;
22565;SDS011;11449;51.330;19.378;2023-11-21T15:44:21;31.60;;;15.70;;
22565;SDS011;11449;51.330;19.378;2023-11-21T15:49:33;39.60;;;19.20;;
22565;SDS011;11449;51.330;19.378;2023-11-21T15:54:44;37.90;;;18.50;;
22565;SDS011;11449;51.330;19.378;2023-11-21T15:59:55;39.90;;;18.20;;
22565;SDS011;11449;51.330;19.378;2023-11-21T16:04:58;42.80;;;18.40;;
22565;SDS011;11449;51.330;19.378;2023-11-21T16:10:08;42.00;;;17.30;;
22565;SDS011;11449;51.330;19.378;2023-11-21T16:15:22;33.00;;;15.30;;
22565;SDS011;11449;51.330;19.378;2023-11-21T16:25:43;41.60;;;18.70;;
22565;SDS011;11449;51.330;19.378;2023-11-21T16:30:46;47.80;;;20.20;;
22565;SDS011;11449;51.330;19.378;2023-11-21T16:35:56;48.60;;;21.80;;
22565;SDS011;11449;51.330;19.378;2023-11-21T16:41:09;57.00;;;23.60;;
22565;SDS011;11449;51.330;19.378;2023-11-21T16:46:19;54.50;;;24.50;;
22565;SDS011;11449;51.330;19.378;2023-11-21T16:51:27;55.70;;;25.60;;
22565;SDS011;11449;51.330;19.378;2023-11-21T16:56:35;53.40;;;23.20;;
22565;SDS011;11449;51.330;19.378;2023-11-21T17:01:40;57.10;;;21.50;;
22565;SDS011;11449;51.330;19.378;2023-11-21T17:06:49;57.00;;;22.90;;
22565;SDS011;11449;51.330;19.378;2023-11-21T17:12:00;76.00;;;25.50;;
22565;SDS011;11449;51.330;19.378;2023-11-21T17:17:11;72.50;;;26.40;;
22565;SDS011;11449;51.330;19.378;2023-11-21T17:22:21;57.10;;;25.10;;
22565;SDS011;11449;51.330;19.378;2023-11-21T17:27:26;65.90;;;26.00;;
22565;SDS011;11449;51.330;19.378;2023-11-21T17:32:30;66.10;;;25.60;;
22565;SDS011;11449;51.330;19.378;2023-11-21T17:37:39;88.70;;;27.20;;
22565;SDS011;11449;51.330;19.378;2023-11-21T17:42:43;58.40;;;25.70;;
22565;SDS011;11449;51.330;19.378;2023-11-21T17:47:48;56.40;;;26.00;;
22565;SDS011;11449;51.330;19.378;2023-11-21T17:52:52;53.40;;;22.20;;
22565;SDS011;11449;51.330;19.378;2023-11-21T17:58:02;62.60;;;23.20;;
22565;SDS011;11449;51.330;19.378;2023-11-21T18:03:12;48.00;;;21.10;;
22565;SDS011;11449;51.330;19.378;2023-11-21T18:08:21;71.60;;;24.50;;
22565;SDS011;11449;51.330;19.378;2023-11-21T18:13:25;49.20;;;22.50;;
22565;SDS011;11449;51.330;19.378;2023-11-21T18:18:33;49.00;;;21.90;;
22565;SDS011;11449;51.330;19.378;2023-11-21T18:23:38;46.20;;;21.80;;
22565;SDS011;11449;51.330;19.378;2023-11-21T18:28:42;48.00;;;20.90;;
22565;SDS011;11449;51.330;19.378;2023-11-21T18:33:51;51.80;;;21.30;;
22565;SDS011;11449;51.330;19.378;2023-11-21T18:39:00;62.50;;;22.30;;
22565;SDS011;11449;51.330;19.378;2023-11-21T18:44:08;54.20;;;23.10;;
22565;SDS011;11449;51.330;19.378;2023-11-21T18:49:15;40.20;;;19.80;;
22565;SDS011;11449;51.330;19.378;2023-11-21T18:54:20;42.10;;;20.10;;
22565;SDS011;11449;51.330;19.378;2023-11-21T18:59:25;39.60;;;18.80;;
22565;SDS011;11449;51.330;19.378;2023-11-21T19:04:29;40.30;;;18.20;;
22565;SDS011;11449;51.330;19.378;2023-11-21T19:09:38;42.50;;;19.50;;
22565;SDS011;11449;51.330;19.378;2023-11-21T19:14:47;43.70;;;19.10;;
22565;SDS011;11449;51.330;19.378;2023-11-21T19:19:59;51.50;;;20.70;;
22565;SDS011;11449;51.330;19.378;2023-11-21T19:25:07;50.80;;;22.40;;
22565;SDS011;11449;51.330;19.378;2023-11-21T19:30:16;51.30;;;24.50;;
22565;SDS011;11449;51.330;19.378;2023-11-21T19:35:26;51.90;;;21.80;;
22565;SDS011;11449;51.330;19.378;2023-11-21T19:40:36;56.00;;;23.10;;
22565;SDS011;11449;51.330;19.378;2023-11-21T19:45:45;56.80;;;25.10;;
22565;SDS011;11449;51.330;19.378;2023-11-21T19:50:54;59.30;;;25.20;;
22565;SDS011;11449;51.330;19.378;2023-11-21T19:56:04;61.40;;;24.90;;
22565;SDS011;11449;51.330;19.378;2023-11-21T20:01:18;49.50;;;21.50;;
22565;SDS011;11449;51.330;19.378;2023-11-21T20:06:27;53.70;;;24.60;;
22565;SDS011;11449;51.330;19.378;2023-11-21T20:11:32;54.80;;;24.40;;
22565;SDS011;11449;51.330;19.378;2023-11-21T20:16:42;50.10;;;23.80;;
22565;SDS011;11449;51.330;19.378;2023-11-21T20:21:51;53.90;;;24.70;;
22565;SDS011;11449;51.330;19.378;2023-11-21T20:26:55;52.30;;;24.70;;
22565;SDS011;11449;51.330;19.378;2023-11-21T20:32:04;61.90;;;24.60;;
22565;SDS011;11449;51.330;19.378;2023-11-21T20:37:09;58.90;;;24.40;;
22565;SDS011;11449;51.330;19.378;2023-11-21T20:42:18;286.70;;;153.10;;
22565;SDS011;11449;51.330;19.378;2023-11-21T20:47:27;58.30;;;25.30;;
22565;SDS011;11449;51.330;19.378;2023-11-21T20:52:36;73.90;;;37.40;;
22565;SDS011;11449;51.330;19.378;2023-11-21T20:57:40;51.00;;;24.00;;
22565;SDS011;11449;51.330;19.378;2023-11-21T21:02:50;58.30;;;23.80;;
22565;SDS011;11449;51.330;19.378;2023-11-21T21:07:56;52.50;;;21.30;;
22565;SDS011;11449;51.330;19.378;2023-11-21T21:13:06;57.50;;;22.80;;
22565;SDS011;11449;51.330;19.378;2023-11-21T21:23:21;49.80;;;19.90;;
22565;SDS011;11449;51.330;19.378;2023-11-21T21:28:29;64.90;;;26.60;;
22565;SDS011;11449;51.330;19.378;2023-11-21T21:33:33;48.60;;;21.60;;
22565;SDS011;11449;51.330;19.378;2023-11-21T21:38:43;52.30;;;22.70;;
22565;SDS011;11449;51.330;19.378;2023-11-21T21:43:50;58.30;;;24.80;;
22565;SDS011;11449;51.330;19.378;2023-11-21T21:49:01;59.70;;;25.00;;
22565;SDS011;11449;51.330;19.378;2023-11-21T21:54:13;45.00;;;19.40;;
22565;SDS011;11449;51.330;19.378;2023-11-21T21:59:21;43.10;;;19.10;;
22565;SDS011;11449;51.330;19.378;2023-11-21T22:04:31;47.70;;;20.70;;
22565;SDS011;11449;51.330;19.378;2023-11-21T22:09:38;46.10;;;21.60;;
22565;SDS011;11449;51.330;19.378;2023-11-21T22:14:46;45.70;;;20.80;;
22565;SDS011;11449;51.330;19.378;2023-11-21T22:19:50;34.80;;;15.80;;
22565;SDS011;11449;51.330;19.378;2023-11-21T22:24:59;43.60;;;19.00;;
22565;SDS011;11449;51.330;19.378;2023-11-21T22:30:07;42.40;;;20.00;;
22565;SDS011;11449;51.330;19.378;2023-11-21T22:35:18;38.40;;;17.90;;
22565;SDS011;11449;51.330;19.378;2023-11-21T22:40:26;38.20;;;18.50;;
22565;SDS011;11449;51.330;19.378;2023-11-21T22:45:34;37.10;;;16.80;;
22565;SDS011;11449;51.330;19.378;2023-11-21T22:50:41;31.70;;;14.90;;
22565;SDS011;11449;51.330;19.378;2023-11-21T22:55:49;31.10;;;14.40;;
22565;SDS011;11449;51.330;19.378;2023-11-21T23:00:58;36.90;;;16.20;;
22565;SDS011;11449;51.330;19.378;2023-11-21T23:06:01;40.50;;;16.20;;
22565;SDS011;11449;51.330;19.378;2023-11-21T23:11:10;37.30;;;15.20;;
22565;SDS011;11449;51.330;19.378;2023-11-21T23:16:21;26.90;;;12.90;;
22565;SDS011;11449;51.330;19.378;2023-11-21T23:21:31;28.10;;;13.20;;
22565;SDS011;11449;51.330;19.378;2023-11-21T23:26:40;30.90;;;13.90;;
22565;SDS011;11449;51.330;19.378;2023-11-21T23:31:50;27.80;;;14.00;;
22565;SDS011;11449;51.330;19.378;2023-11-21T23:36:57;35.10;;;16.30;;
22565;SDS011;11449;51.330;19.378;2023-11-21T23:42:05;36.60;;;17.30;;
22565;SDS011;11449;51.330;19.378;2023-11-21T23:47:13;37.10;;;16.40;;
22565;SDS011;11449;51.330;19.378;2023-11-21T23:52:21;36.70;;;16.90;;
22565;SDS011;11449;51.330;19.378;2023-11-21T23:57:31;31.70;;;14.40;;
